Time;durP1;ratioP1;P1;durP2;ratioP2;P2;SDS_P1;SDS_P2;PMS_P1;PMS_P2;Temp;Humidity;BMP_temperature;BMP_pressure;BME280_temperature;BME280_humidity;BME280_pressure;Samples;Min_cycle;Max_cycle;Signal;HPM_P1;HPM_P2
2022/11/13 00:00:22;;;;;;;;;;;;;;;;;;7369867;19;1834;-63
2022/11/13 00:03:08;;;;;;;;;;;;;;;;;;7373684;19;1805;-64
2022/11/13 00:05:55;;;;;;;;;;;;;;;;;;7369687;19;761;-62
2022/11/13 00:08:42;;;;;;;;;;;;;;;;;;7369628;19;747;-63
2022/11/13 00:11:29;;;;;;;;;;;;;;;;;;7369458;19;1286;-63
2022/11/13 00:14:16;;;;;;;;;;;;;;;;;;7372836;19;1725;-62
2022/11/13 00:17:03;;;;;;;;;;;;;;;;;;7370429;19;708;-61
2022/11/13 00:19:49;;;;;;;;;;;;;;;;;;7369680;19;728;-65
2022/11/13 00:22:36;;;;;;;;;;;;;;;;;;7369766;19;1873;-63
2022/11/13 00:25:23;;;;;;;;;;;;;;;;;;7369637;19;718;-64
2022/11/13 00:28:10;;;;;;;;;;;;;;;;;;7368667;19;768;-64
2022/11/13 00:30:57;;;;;;;;;;;;;;;;;;7367884;19;1263;-65
2022/11/13 00:33:44;;;;;;;;;;;;;;;;;;7368271;19;798;-65
2022/11/13 00:36:30;;;;;;;;;;;;;;;;;;7369176;19;757;-64
2022/11/13 00:39:17;;;;;;;;;;;;;;;;;;7367193;19;846;-64
2022/11/13 00:42:04;;;;;;;;;;;;;;;;;;7366010;19;1847;-64
2022/11/13 00:44:51;;;;;;;;;;;;;;;;;;7368807;19;733;-64
2022/11/13 00:47:38;;;;;;;;;;;;;;;;;;7368050;19;844;-64
2022/11/13 00:50:24;;;;;;;;;;;;;;;;;;7370524;19;2005;-62
2022/11/13 00:53:11;;;;;;;;;;;;;;;;;;7367441;19;791;-62
2022/11/13 00:55:59;;;;;;;;;;;;;;;;;;7367474;19;1125;-64
2022/11/13 00:58:46;;;;;;;;;;;;;;;;;;7372052;19;1927;-64
2022/11/13 01:01:32;;;;;;;;;;;;;;;;;;7370033;19;1849;-63
2022/11/13 01:04:19;;;;;;;;;;;;;;;;;;7370902;19;2019;-63
2022/11/13 01:07:06;;;;;;;;;;;;;;;;;;7368120;19;712;-63
2022/11/13 01:09:53;;;;;;;;;;;;;;;;;;7371227;19;855;-63
2022/11/13 01:12:40;;;;;;;;;;;;;;;;;;7368097;19;1388;-63
2022/11/13 01:15:26;;;;;;;;;;;;;;;;;;7372468;19;747;-63
2022/11/13 01:18:13;;;;;;;;;;;;;;;;;;7370990;19;2019;-63
2022/11/13 01:21:00;;;;;;;;;;;;;;;;;;7365225;19;1838;-63
2022/11/13 01:23:47;;;;;;;;;;;;;;;;;;7366380;19;692;-63
2022/11/13 01:26:34;;;;;;;;;;;;;;;;;;7365638;19;755;-63
2022/11/13 01:29:21;;;;;;;;;;;;;;;;;;7365159;19;799;-63
2022/11/13 01:32:08;;;;;;;;;;;;;;;;;;7363742;19;1358;-63
2022/11/13 01:34:54;;;;;;;;;;;;;;;;;;7365279;19;823;-63
2022/11/13 01:37:41;;;;;;;;;;;;;;;;;;7369780;19;1668;-63
2022/11/13 01:40:28;;;;;;;;;;;;;;;;;;7365744;19;1247;-63
2022/11/13 01:43:15;;;;;;;;;;;;;;;;;;7362774;19;695;-63
2022/11/13 01:46:02;;;;;;;;;;;;;;;;;;7366191;19;1568;-63
2022/11/13 01:48:49;;;;;;;;;;;;;;;;;;7364318;19;727;-65
2022/11/13 01:51:36;;;;;;;;;;;;;;;;;;7364342;19;1314;-63
2022/11/13 01:54:22;;;;;;;;;;;;;;;;;;7365293;19;813;-64
2022/11/13 01:57:09;;;;;;;;;;;;;;;;;;7364989;19;728;-63
2022/11/13 01:59:56;;;;;;;;;;;;;;;;;;7364595;19;720;-63
2022/11/13 02:02:43;;;;;;;;;;;;;;;;;;7361516;19;1845;-63
2022/11/13 02:05:29;;;;;;;;;;;;;;;;;;7365719;19;1854;-64
2022/11/13 02:08:16;;;;;;;;;;;;;;;;;;7366390;19;2006;-64
2022/11/13 02:11:03;;;;;;;;;;;;;;;;;;7364765;19;1279;-64
2022/11/13 02:13:50;;;;;;;;;;;;;;;;;;7365736;19;784;-64
2022/11/13 02:16:37;;;;;;;;;;;;;;;;;;7367759;19;1791;-64
2022/11/13 02:19:23;;;;;;;;;;;;;;;;;;7363406;19;815;-64
2022/11/13 02:22:10;;;;;;;;;;;;;;;;;;7361944;19;1842;-64
2022/11/13 02:24:57;;;;;;;;;;;;;;;;;;7370845;19;736;-64
2022/11/13 02:27:44;;;;;;;;;;;;;;;;;;7370098;19;922;-64
2022/11/13 02:30:30;;;;;;;;;;;;;;;;;;7370730;19;1361;-64
2022/11/13 02:33:17;;;;;;;;;;;;;;;;;;7370905;19;775;-64
2022/11/13 02:36:04;;;;;;;;;;;;;;;;;;7371015;19;715;-64
2022/11/13 02:38:51;;;;;;;;;;;;;;;;;;7371001;19;756;-64
2022/11/13 02:41:38;;;;;;;;;;;;;;;;;;7370481;19;1842;-64
2022/11/13 02:44:25;;;;;;;;;;;;;;;;;;7372961;19;1781;-64
2022/11/13 02:47:12;;;;;;;;;;;;;;;;;;7371671;19;723;-64
2022/11/13 02:49:58;;;;;;;;;;;;;;;;;;7370593;19;799;-64
2022/11/13 02:52:46;;;;;;;;;;;;;;;;;;7368903;19;1413;-65
2022/11/13 02:55:33;;;;;;;;;;;;;;;;;;7369973;19;788;-64
2022/11/13 02:58:19;;;;;;;;;;;;;;;;;;7369308;19;770;-64
2022/11/13 03:01:06;;;;;;;;;;;;;;;;;;7369049;19;1416;-64
2022/11/13 03:03:53;;;;;;;;;;;;;;;;;;7369862;19;806;-64
2022/11/13 03:06:40;;;;;;;;;;;;;;;;;;7370553;19;813;-64
2022/11/13 03:09:26;;;;;;;;;;;;;;;;;;7370970;19;759;-65
2022/11/13 03:12:13;;;;;;;;;;;;;;;;;;7369145;19;1365;-63
2022/11/13 03:15:00;;;;;;;;;;;;;;;;;;7374532;19;2033;-64
2022/11/13 03:17:47;;;;;;;;;;;;;;;;;;7369897;19;741;-64
2022/11/13 03:20:33;;;;;;;;;;;;;;;;;;7370262;19;1281;-64
2022/11/13 03:23:20;;;;;;;;;;;;;;;;;;7368122;19;1851;-64
2022/11/13 03:26:07;;;;;;;;;;;;;;;;;;7376571;19;783;-64
2022/11/13 03:28:54;;;;;;;;;;;;;;;;;;7370731;19;798;-64
2022/11/13 03:31:40;;;;;;;;;;;;;;;;;;7371284;19;1381;-64
2022/11/13 03:34:27;;;;;;;;;;;;;;;;;;7369161;19;768;-64
2022/11/13 03:37:14;;;;;;;;;;;;;;;;;;7370701;19;765;-64
2022/11/13 03:40:01;;;;;;;;;;;;;;;;;;7369270;19;739;-64
2022/11/13 03:42:48;;;;;;;;;;;;;;;;;;7369566;19;1838;-63
2022/11/13 03:45:35;;;;;;;;;;;;;;;;;;7369608;19;713;-64
2022/11/13 03:48:21;;;;;;;;;;;;;;;;;;7367800;19;805;-64
2022/11/13 03:51:08;;;;;;;;;;;;;;;;;;7368333;19;1380;-63
2022/11/13 03:53:55;;;;;;;;;;;;;;;;;;7368760;19;815;-63
2022/11/13 03:56:42;;;;;;;;;;;;;;;;;;7369314;19;770;-64
2022/11/13 03:59:29;;;;;;;;;;;;;;;;;;7367767;19;706;-63
2022/11/13 04:02:16;;;;;;;;;;;;;;;;;;7366388;19;1850;-64
2022/11/13 04:05:02;;;;;;;;;;;;;;;;;;7369053;19;790;-63
2022/11/13 04:07:50;;;;;;;;;;;;;;;;;;7368007;19;845;-64
2022/11/13 04:10:36;;;;;;;;;;;;;;;;;;7367727;19;1784;-64
2022/11/13 04:13:23;;;;;;;;;;;;;;;;;;7372307;19;1882;-62
2022/11/13 04:16:09;;;;;;;;;;;;;;;;;;7367910;19;748;-63
2022/11/13 04:18:56;;;;;;;;;;;;;;;;;;7366959;19;807;-63
2022/11/13 04:21:43;;;;;;;;;;;;;;;;;;7366323;19;1893;-64
2022/11/13 04:24:30;;;;;;;;;;;;;;;;;;7367795;19;868;-64
2022/11/13 04:27:17;;;;;;;;;;;;;;;;;;7368031;19;743;-64
2022/11/13 04:30:04;;;;;;;;;;;;;;;;;;7368339;19;708;-64
2022/11/13 04:32:50;;;;;;;;;;;;;;;;;;7364857;19;1353;-63
2022/11/13 04:35:47;;;;;;;;;;;;;;;;;;7368541;19;780;-64
2022/11/13 04:38:34;;;;;;;;;;;;;;;;;;7366000;19;743;-62
2022/11/13 04:44:20;;;;;;;;;;;;;;;;;;7371623;19;765;-63
2022/11/13 04:47:07;;;;;;;;;;;;;;;;;;7365882;19;720;-63
2022/11/13 04:49:53;;;;;;;;;;;;;;;;;;7366891;19;782;-63
2022/11/13 04:52:40;;;;;;;;;;;;;;;;;;7363809;19;1373;-63
2022/11/13 04:55:27;;;;;;;;;;;;;;;;;;7368782;19;1651;-64
2022/11/13 04:58:13;;;;;;;;;;;;;;;;;;7366311;19;724;-63
2022/11/13 05:01:00;;;;;;;;;;;;;;;;;;7366209;19;1388;-63
2022/11/13 05:03:47;;;;;;;;;;;;;;;;;;7363884;19;1830;-63
2022/11/13 05:06:34;;;;;;;;;;;;;;;;;;7366898;19;692;-63
2022/11/13 05:09:21;;;;;;;;;;;;;;;;;;7365576;19;2011;-63
2022/11/13 05:12:08;;;;;;;;;;;;;;;;;;7368587;19;1262;-63
2022/11/13 05:14:55;;;;;;;;;;;;;;;;;;7366574;19;716;-63
2022/11/13 05:17:41;;;;;;;;;;;;;;;;;;7365098;19;807;-63
2022/11/13 05:20:28;;;;;;;;;;;;;;;;;;7365279;19;1323;-63
2022/11/13 05:23:15;;;;;;;;;;;;;;;;;;7364403;19;1813;-63
2022/11/13 05:26:02;;;;;;;;;;;;;;;;;;7366259;19;777;-63
2022/11/13 05:28:48;;;;;;;;;;;;;;;;;;7364907;19;714;-63
2022/11/13 05:31:35;;;;;;;;;;;;;;;;;;7364577;19;1393;-63
2022/11/13 05:34:22;;;;;;;;;;;;;;;;;;7366629;19;716;-63
2022/11/13 05:37:09;;;;;;;;;;;;;;;;;;7365705;19;734;-63
2022/11/13 05:39:56;;;;;;;;;;;;;;;;;;7369551;19;725;-63
2022/11/13 05:42:42;;;;;;;;;;;;;;;;;;7362510;19;1849;-63
2022/11/13 05:45:29;;;;;;;;;;;;;;;;;;7364713;19;771;-63
2022/11/13 05:48:16;;;;;;;;;;;;;;;;;;7364347;19;771;-63
2022/11/13 05:51:03;;;;;;;;;;;;;;;;;;7368717;19;1279;-63
2022/11/13 05:53:50;;;;;;;;;;;;;;;;;;7364527;19;911;-63
2022/11/13 05:56:37;;;;;;;;;;;;;;;;;;7366476;19;835;-63
2022/11/13 05:59:24;;;;;;;;;;;;;;;;;;7370845;19;720;-63
2022/11/13 06:02:11;;;;;;;;;;;;;;;;;;7370057;19;1838;-63
2022/11/13 06:04:58;;;;;;;;;;;;;;;;;;7371471;19;775;-63
2022/11/13 06:07:44;;;;;;;;;;;;;;;;;;7371419;19;1817;-63
2022/11/13 06:10:31;;;;;;;;;;;;;;;;;;7371721;19;1779;-63
2022/11/13 06:13:18;;;;;;;;;;;;;;;;;;7371630;19;806;-63
2022/11/13 06:16:05;;;;;;;;;;;;;;;;;;7370975;19;761;-62
2022/11/13 06:18:52;;;;;;;;;;;;;;;;;;7370095;19;884;-63
2022/11/13 06:21:38;;;;;;;;;;;;;;;;;;7370801;19;1315;-63
2022/11/13 06:24:25;;;;;;;;;;;;;;;;;;7368583;19;1867;-63
2022/11/13 06:27:12;;;;;;;;;;;;;;;;;;7370105;19;723;-64
2022/11/13 06:29:59;;;;;;;;;;;;;;;;;;7369792;19;1630;-64
2022/11/13 06:32:46;;;;;;;;;;;;;;;;;;7368344;19;1393;-63
2022/11/13 06:35:33;;;;;;;;;;;;;;;;;;7370787;19;797;-63
2022/11/13 06:38:19;;;;;;;;;;;;;;;;;;7370227;19;982;-63
2022/11/13 06:41:06;;;;;;;;;;;;;;;;;;7370164;19;1290;-63
2022/11/13 06:43:53;;;;;;;;;;;;;;;;;;7368514;19;1845;-63
2022/11/13 06:46:40;;;;;;;;;;;;;;;;;;7370817;19;734;-63
2022/11/13 06:49:26;;;;;;;;;;;;;;;;;;7369704;19;746;-63
2022/11/13 06:52:14;;;;;;;;;;;;;;;;;;7367377;19;1393;-64
2022/11/13 06:55:01;;;;;;;;;;;;;;;;;;7370237;19;779;-64
2022/11/13 06:57:48;;;;;;;;;;;;;;;;;;7369123;19;814;-63
2022/11/13 07:00:34;;;;;;;;;;;;;;;;;;7374276;19;1867;-63
2022/11/13 07:03:21;;;;;;;;;;;;;;;;;;7368680;19;1845;-63
2022/11/13 07:06:08;;;;;;;;;;;;;;;;;;7369976;19;791;-63
2022/11/13 07:08:55;;;;;;;;;;;;;;;;;;7366743;19;752;-63
2022/11/13 07:11:42;;;;;;;;;;;;;;;;;;7368408;19;1323;-63
2022/11/13 07:14:28;;;;;;;;;;;;;;;;;;7369609;19;775;-63
2022/11/13 07:17:15;;;;;;;;;;;;;;;;;;7369940;19;725;-63
2022/11/13 07:20:02;;;;;;;;;;;;;;;;;;7369507;19;717;-63
2022/11/13 07:22:49;;;;;;;;;;;;;;;;;;7366743;19;1877;-63
2022/11/13 07:25:35;;;;;;;;;;;;;;;;;;7368711;19;821;-63
2022/11/13 07:28:22;;;;;;;;;;;;;;;;;;7369515;19;2009;-63
2022/11/13 07:31:09;;;;;;;;;;;;;;;;;;7368883;19;1338;-63
2022/11/13 07:33:56;;;;;;;;;;;;;;;;;;7369373;19;693;-63
2022/11/13 07:36:43;;;;;;;;;;;;;;;;;;7370077;19;763;-63
2022/11/13 07:39:30;;;;;;;;;;;;;;;;;;7368060;19;869;-64
2022/11/13 07:42:17;;;;;;;;;;;;;;;;;;7366853;19;1396;-64
2022/11/13 07:45:03;;;;;;;;;;;;;;;;;;7370284;19;2002;-63
2022/11/13 07:47:50;;;;;;;;;;;;;;;;;;7368120;19;856;-63
2022/11/13 07:50:37;;;;;;;;;;;;;;;;;;7368362;19;1323;-63
2022/11/13 07:53:23;;;;;;;;;;;;;;;;;;7368925;19;806;-63
2022/11/13 07:56:10;;;;;;;;;;;;;;;;;;7368513;19;1662;-63
2022/11/13 07:58:57;;;;;;;;;;;;;;;;;;7367825;19;745;-64
2022/11/13 08:01:44;;;;;;;;;;;;;;;;;;7367516;19;1314;-63
2022/11/13 08:04:30;;;;;;;;;;;;;;;;;;7368795;19;1869;-63
2022/11/13 08:07:17;;;;;;;;;;;;;;;;;;7367838;19;787;-64
2022/11/13 08:10:04;;;;;;;;;;;;;;;;;;7368083;19;783;-63
2022/11/13 08:12:51;;;;;;;;;;;;;;;;;;7369861;19;1918;-63
2022/11/13 08:15:38;;;;;;;;;;;;;;;;;;7368025;19;846;-64
2022/11/13 08:18:25;;;;;;;;;;;;;;;;;;7366508;19;890;-63
2022/11/13 08:21:11;;;;;;;;;;;;;;;;;;7364485;19;1392;-63
2022/11/13 08:23:58;;;;;;;;;;;;;;;;;;7366337;19;1849;-64
2022/11/13 08:26:45;;;;;;;;;;;;;;;;;;7369389;19;1813;-64
2022/11/13 08:29:32;;;;;;;;;;;;;;;;;;7366819;19;759;-63
2022/11/13 08:32:21;;;;;;;;;;;;;;;;;;7366413;19;1315;-63
2022/11/13 08:35:08;;;;;;;;;;;;;;;;;;7367800;19;826;-63
2022/11/13 08:37:54;;;;;;;;;;;;;;;;;;7366925;19;699;-62
2022/11/13 08:40:41;;;;;;;;;;;;;;;;;;7366931;19;1318;-63
2022/11/13 08:43:28;;;;;;;;;;;;;;;;;;7366676;19;1829;-63
2022/11/13 08:46:15;;;;;;;;;;;;;;;;;;7367412;19;728;-63
2022/11/13 08:49:02;;;;;;;;;;;;;;;;;;7366681;19;783;-64
2022/11/13 08:51:49;;;;;;;;;;;;;;;;;;7365652;19;1724;-64
2022/11/13 08:54:36;;;;;;;;;;;;;;;;;;7367364;19;1803;-64
2022/11/13 08:57:23;;;;;;;;;;;;;;;;;;7367428;19;891;-63
2022/11/13 09:00:10;;;;;;;;;;;;;;;;;;7367459;19;816;-64
2022/11/13 09:02:57;;;;;;;;;;;;;;;;;;7366617;19;1849;-63
2022/11/13 09:05:43;;;;;;;;;;;;;;;;;;7368604;19;802;-64
2022/11/13 09:08:30;;;;;;;;;;;;;;;;;;7367075;19;905;-64
2022/11/13 09:11:18;;;;;;;;;;;;;;;;;;7366054;19;1342;-63
2022/11/13 09:14:04;;;;;;;;;;;;;;;;;;7367248;19;791;-64
2022/11/13 09:16:52;;;;;;;;;;;;;;;;;;7367440;19;787;-64
2022/11/13 09:19:38;;;;;;;;;;;;;;;;;;7366183;19;804;-64
2022/11/13 09:22:25;;;;;;;;;;;;;;;;;;7367915;19;1897;-64
2022/11/13 09:25:12;;;;;;;;;;;;;;;;;;7365898;19;1834;-64
2022/11/13 09:27:59;;;;;;;;;;;;;;;;;;7365363;19;777;-64
2022/11/13 09:30:46;;;;;;;;;;;;;;;;;;7365923;19;1326;-64
2022/11/13 09:33:33;;;;;;;;;;;;;;;;;;7371462;19;1530;-64
2022/11/13 09:36:19;;;;;;;;;;;;;;;;;;7376368;19;1959;-63
2022/11/13 09:39:06;;;;;;;;;;;;;;;;;;7373470;19;917;-65
2022/11/13 09:41:53;;;;;;;;;;;;;;;;;;7371603;19;1325;-64
2022/11/13 09:44:40;;;;;;;;;;;;;;;;;;7371989;19;1838;-63
2022/11/13 09:47:27;;;;;;;;;;;;;;;;;;7372876;19;793;-64
2022/11/13 09:50:13;;;;;;;;;;;;;;;;;;7372692;19;710;-65
2022/11/13 09:53:00;;;;;;;;;;;;;;;;;;7375386;19;1824;-65
2022/11/13 09:55:47;;;;;;;;;;;;;;;;;;7372466;19;701;-65
2022/11/13 09:58:34;;;;;;;;;;;;;;;;;;7371801;19;778;-64
2022/11/13 10:01:21;;;;;;;;;;;;;;;;;;7371020;19;1322;-62
2022/11/13 10:04:07;;;;;;;;;;;;;;;;;;7375496;19;1842;-63
2022/11/13 10:06:54;;;;;;;;;;;;;;;;;;7374794;19;2021;-64
2022/11/13 10:09:41;;;;;;;;;;;;;;;;;;7371812;19;722;-64
2022/11/13 10:12:28;;;;;;;;;;;;;;;;;;7374208;19;1304;-66
2022/11/13 10:15:14;;;;;;;;;;;;;;;;;;7379773;19;763;-66
2022/11/13 10:18:01;;;;;;;;;;;;;;;;;;7382108;19;692;-65
2022/11/13 10:20:48;;;;;;;;;;;;;;;;;;7384346;19;1287;-62
2022/11/13 10:23:36;;;;;;;;;;;;;;;;;;7379583;19;1846;-66
2022/11/13 10:26:23;;;;;;;;;;;;;;;;;;7376900;19;702;-65
2022/11/13 10:29:10;;;;;;;;;;;;;;;;;;7371863;19;798;-65
2022/11/13 10:31:57;;;;;;;;;;;;;;;;;;7371745;19;1829;-64
2022/11/13 10:34:44;;;;;;;;;;;;;;;;;;7375404;19;1817;-66
2022/11/13 10:37:30;;;;;;;;;;;;;;;;;;7372570;19;769;-65
2022/11/13 10:40:17;;;;;;;;;;;;;;;;;;7372158;19;724;-65
2022/11/13 10:43:04;;;;;;;;;;;;;;;;;;7371053;19;708;-65
2022/11/13 10:45:51;;;;;;;;;;;;;;;;;;7371817;19;763;-66
2022/11/13 10:48:38;;;;;;;;;;;;;;;;;;7370518;19;755;-66
2022/11/13 10:51:25;;;;;;;;;;;;;;;;;;7370538;19;1312;-65
2022/11/13 10:54:12;;;;;;;;;;;;;;;;;;7370878;19;724;-65
2022/11/13 10:56:58;;;;;;;;;;;;;;;;;;7371189;19;699;-65
2022/11/13 10:59:46;;;;;;;;;;;;;;;;;;7369206;19;773;-64
2022/11/13 11:02:32;;;;;;;;;;;;;;;;;;7368962;19;1921;-66
2022/11/13 11:05:19;;;;;;;;;;;;;;;;;;7369847;19;1871;-66
2022/11/13 11:08:06;;;;;;;;;;;;;;;;;;7369668;19;765;-66
2022/11/13 11:13:52;;;;;;;;;;;;;;;;;;7370491;19;1103;-65
2022/11/13 11:16:38;;;;;;;;;;;;;;;;;;7369337;19;800;-67
2022/11/13 11:19:25;;;;;;;;;;;;;;;;;;7371927;19;1425;-65
2022/11/13 11:22:12;;;;;;;;;;;;;;;;;;7368510;19;1405;-67
2022/11/13 11:24:59;;;;;;;;;;;;;;;;;;7369459;19;1826;-67
2022/11/13 11:27:45;;;;;;;;;;;;;;;;;;7369505;19;813;-67
2022/11/13 11:30:32;;;;;;;;;;;;;;;;;;7370850;19;1330;-66
2022/11/13 11:33:19;;;;;;;;;;;;;;;;;;7372070;19;1832;-65
2022/11/13 11:36:06;;;;;;;;;;;;;;;;;;7373585;19;1977;-66
2022/11/13 11:38:52;;;;;;;;;;;;;;;;;;7376566;19;749;-64
2022/11/13 11:41:39;;;;;;;;;;;;;;;;;;7367386;19;1294;-63
2022/11/13 11:44:26;;;;;;;;;;;;;;;;;;7368099;19;1849;-66
2022/11/13 11:47:13;;;;;;;;;;;;;;;;;;7369338;19;786;-65
2022/11/13 11:50:00;;;;;;;;;;;;;;;;;;7373023;19;1661;-65
2022/11/13 11:52:47;;;;;;;;;;;;;;;;;;7366549;19;1349;-63
2022/11/13 11:55:33;;;;;;;;;;;;;;;;;;7369826;19;881;-64
2022/11/13 11:58:20;;;;;;;;;;;;;;;;;;7367900;19;779;-64
2022/11/13 12:01:08;;;;;;;;;;;;;;;;;;7371406;19;1947;-65
2022/11/13 12:03:57;;;;;;;;;;;;;;;;;;7365293;19;1814;-65
2022/11/13 12:06:44;;;;;;;;;;;;;;;;;;7370327;19;897;-65
2022/11/13 12:09:31;;;;;;;;;;;;;;;;;;7370813;19;702;-65
2022/11/13 12:12:17;;;;;;;;;;;;;;;;;;7368830;19;2043;-63
2022/11/13 12:15:05;;;;;;;;;;;;;;;;;;7368073;19;811;-65
2022/11/13 12:17:52;;;;;;;;;;;;;;;;;;7368661;19;1741;-64
2022/11/13 12:20:38;;;;;;;;;;;;;;;;;;7371705;19;1278;-65
2022/11/13 12:23:25;;;;;;;;;;;;;;;;;;7367549;19;768;-64
2022/11/13 12:26:12;;;;;;;;;;;;;;;;;;7364801;19;1845;-64
2022/11/13 12:28:59;;;;;;;;;;;;;;;;;;7366656;19;834;-64
2022/11/13 12:31:45;;;;;;;;;;;;;;;;;;7368336;19;2020;-64
2022/11/13 12:34:32;;;;;;;;;;;;;;;;;;7371595;19;1719;-63
2022/11/13 12:37:19;;;;;;;;;;;;;;;;;;7370871;19;1831;-63
2022/11/13 12:40:06;;;;;;;;;;;;;;;;;;7367980;19;1244;-64
2022/11/13 12:42:53;;;;;;;;;;;;;;;;;;7365436;19;1354;-64
2022/11/13 12:45:39;;;;;;;;;;;;;;;;;;7366273;19;1825;-64
2022/11/13 12:48:26;;;;;;;;;;;;;;;;;;7366226;19;773;-63
2022/11/13 12:51:13;;;;;;;;;;;;;;;;;;7366449;19;1342;-64
2022/11/13 12:54:00;;;;;;;;;;;;;;;;;;7367763;19;693;-64
2022/11/13 12:56:47;;;;;;;;;;;;;;;;;;7367844;19;764;-64
2022/11/13 12:59:34;;;;;;;;;;;;;;;;;;7366623;19;778;-64
2022/11/13 13:02:21;;;;;;;;;;;;;;;;;;7365024;19;1321;-63
2022/11/13 13:05:08;;;;;;;;;;;;;;;;;;7364310;19;1838;-64
2022/11/13 13:07:54;;;;;;;;;;;;;;;;;;7364746;19;870;-62
2022/11/13 13:10:42;;;;;;;;;;;;;;;;;;7366461;19;1345;-61
2022/11/13 13:13:28;;;;;;;;;;;;;;;;;;7366538;19;849;-63
2022/11/13 13:16:15;;;;;;;;;;;;;;;;;;7367525;19;790;-64
2022/11/13 13:19:02;;;;;;;;;;;;;;;;;;7365496;19;832;-62
2022/11/13 13:21:49;;;;;;;;;;;;;;;;;;7364064;19;1263;-63
2022/11/13 13:24:35;;;;;;;;;;;;;;;;;;7365312;19;1822;-62
2022/11/13 13:27:22;;;;;;;;;;;;;;;;;;7365986;19;755;-62
2022/11/13 13:30:09;;;;;;;;;;;;;;;;;;7365673;19;933;-64
2022/11/13 13:32:56;;;;;;;;;;;;;;;;;;7362773;19;1389;-63
2022/11/13 13:35:43;;;;;;;;;;;;;;;;;;7366023;19;795;-64
2022/11/13 13:38:29;;;;;;;;;;;;;;;;;;7365206;19;756;-63
2022/11/13 13:41:16;;;;;;;;;;;;;;;;;;7364136;19;1319;-63
2022/11/13 13:44:03;;;;;;;;;;;;;;;;;;7365681;19;813;-61
2022/11/13 13:46:50;;;;;;;;;;;;;;;;;;7365835;19;805;-63
2022/11/13 13:49:37;;;;;;;;;;;;;;;;;;7364946;19;769;-63
2022/11/13 13:52:24;;;;;;;;;;;;;;;;;;7363388;19;1377;-62
2022/11/13 13:55:11;;;;;;;;;;;;;;;;;;7365062;19;783;-63
2022/11/13 13:57:58;;;;;;;;;;;;;;;;;;7364500;19;779;-60
2022/11/13 14:00:44;;;;;;;;;;;;;;;;;;7363834;19;1200;-63
2022/11/13 14:03:31;;;;;;;;;;;;;;;;;;7364309;19;884;-64
2022/11/13 14:06:18;;;;;;;;;;;;;;;;;;7362509;19;1858;-62
2022/11/13 14:09:05;;;;;;;;;;;;;;;;;;7364163;19;770;-64
2022/11/13 14:11:52;;;;;;;;;;;;;;;;;;7362643;19;1247;-62
2022/11/13 14:14:38;;;;;;;;;;;;;;;;;;7364503;19;724;-63
2022/11/13 14:17:27;;;;;;;;;;;;;;;;;;7363851;19;747;-63
2022/11/13 14:20:15;;;;;;;;;;;;;;;;;;7370420;19;945;-62
2022/11/13 14:23:01;;;;;;;;;;;;;;;;;;7370527;19;774;-64
2022/11/13 14:25:48;;;;;;;;;;;;;;;;;;7369159;19;1845;-63
2022/11/13 14:28:35;;;;;;;;;;;;;;;;;;7369962;19;761;-64
2022/11/13 14:31:22;;;;;;;;;;;;;;;;;;7370186;19;1359;-64
2022/11/13 14:34:08;;;;;;;;;;;;;;;;;;7371340;19;810;-61
2022/11/13 14:36:55;;;;;;;;;;;;;;;;;;7370846;19;704;-63
2022/11/13 14:39:42;;;;;;;;;;;;;;;;;;7370229;19;672;-62
2022/11/13 14:42:35;;;;;;;;;;;;;;;;;;7368802;19;1374;-63
2022/11/13 14:45:22;;;;;;;;;;;;;;;;;;7369417;19;1841;-62
2022/11/13 14:48:08;;;;;;;;;;;;;;;;;;7368857;19;765;-63
2022/11/13 14:50:55;;;;;;;;;;;;;;;;;;7370138;19;1271;-63
2022/11/13 14:53:42;;;;;;;;;;;;;;;;;;7370051;19;779;-64
2022/11/13 14:56:29;;;;;;;;;;;;;;;;;;7370847;19;676;-62
2022/11/13 14:59:15;;;;;;;;;;;;;;;;;;7368944;19;694;-63
2022/11/13 15:02:02;;;;;;;;;;;;;;;;;;7368409;19;1363;-63
2022/11/13 15:04:49;;;;;;;;;;;;;;;;;;7369202;19;1836;-61
2022/11/13 15:07:36;;;;;;;;;;;;;;;;;;7369046;19;769;-64
2022/11/13 15:10:23;;;;;;;;;;;;;;;;;;7369869;19;805;-63
2022/11/13 15:13:10;;;;;;;;;;;;;;;;;;7370123;19;829;-63
2022/11/13 15:15:57;;;;;;;;;;;;;;;;;;7369977;19;763;-64
2022/11/13 15:18:44;;;;;;;;;;;;;;;;;;7368773;19;594;-63
2022/11/13 15:21:31;;;;;;;;;;;;;;;;;;7369374;19;1334;-63
2022/11/13 15:24:18;;;;;;;;;;;;;;;;;;7368832;19;802;-62
2022/11/13 15:27:04;;;;;;;;;;;;;;;;;;7369405;19;763;-63
2022/11/13 15:29:51;;;;;;;;;;;;;;;;;;7366933;19;779;-64
2022/11/13 15:32:38;;;;;;;;;;;;;;;;;;7366033;19;1326;-62
2022/11/13 15:35:25;;;;;;;;;;;;;;;;;;7369044;19;921;-64
2022/11/13 15:38:12;;;;;;;;;;;;;;;;;;7368250;19;696;-64
2022/11/13 15:40:58;;;;;;;;;;;;;;;;;;7367618;19;1219;-61
2022/11/13 15:43:45;;;;;;;;;;;;;;;;;;7370699;19;1982;-63
2022/11/13 15:46:32;;;;;;;;;;;;;;;;;;7369560;19;1863;-64
2022/11/13 15:49:19;;;;;;;;;;;;;;;;;;7368247;19;794;-63
2022/11/13 15:52:06;;;;;;;;;;;;;;;;;;7369997;19;1691;-62
2022/11/13 15:54:53;;;;;;;;;;;;;;;;;;7371053;19;1831;-64
2022/11/13 15:57:39;;;;;;;;;;;;;;;;;;7368099;19;742;-62
2022/11/13 16:00:26;;;;;;;;;;;;;;;;;;7368490;19;735;-62
2022/11/13 16:03:13;;;;;;;;;;;;;;;;;;7368542;19;802;-62
2022/11/13 16:06:00;;;;;;;;;;;;;;;;;;7366868;19;1838;-62
2022/11/13 16:08:46;;;;;;;;;;;;;;;;;;7369115;19;1787;-61
2022/11/13 16:11:33;;;;;;;;;;;;;;;;;;7367815;19;1373;-62
2022/11/13 16:14:20;;;;;;;;;;;;;;;;;;7373463;19;707;-62
2022/11/13 16:17:07;;;;;;;;;;;;;;;;;;7368585;19;807;-62
2022/11/13 16:19:54;;;;;;;;;;;;;;;;;;7371897;19;700;-62
2022/11/13 16:22:41;;;;;;;;;;;;;;;;;;7365921;19;1327;-61
2022/11/13 16:25:28;;;;;;;;;;;;;;;;;;7367793;19;1854;-59
2022/11/13 16:28:14;;;;;;;;;;;;;;;;;;7367213;19;733;-59
2022/11/13 16:31:01;;;;;;;;;;;;;;;;;;7368046;19;1330;-62
2022/11/13 16:33:48;;;;;;;;;;;;;;;;;;7367691;19;813;-62
2022/11/13 16:36:35;;;;;;;;;;;;;;;;;;7367998;19;780;-59
2022/11/13 16:39:22;;;;;;;;;;;;;;;;;;7365968;19;704;-62
2022/11/13 16:42:09;;;;;;;;;;;;;;;;;;7368429;19;1877;-62
2022/11/13 16:44:56;;;;;;;;;;;;;;;;;;7367051;19;837;-63
2022/11/13 16:47:42;;;;;;;;;;;;;;;;;;7366584;19;708;-61
2022/11/13 16:50:29;;;;;;;;;;;;;;;;;;7367716;19;857;-62
2022/11/13 16:53:16;;;;;;;;;;;;;;;;;;7367321;19;837;-60
2022/11/13 16:56:03;;;;;;;;;;;;;;;;;;7366794;19;769;-60
2022/11/13 16:58:50;;;;;;;;;;;;;;;;;;7366554;19;794;-60
2022/11/13 17:01:37;;;;;;;;;;;;;;;;;;7365834;19;1375;-61
2022/11/13 17:04:24;;;;;;;;;;;;;;;;;;7366528;19;730;-61
2022/11/13 17:07:10;;;;;;;;;;;;;;;;;;7364244;19;1845;-61
2022/11/13 17:09:57;;;;;;;;;;;;;;;;;;7370236;19;1838;-57
2022/11/13 17:12:44;;;;;;;;;;;;;;;;;;7362990;19;1329;-64
2022/11/13 17:15:31;;;;;;;;;;;;;;;;;;7366842;19;746;-61
2022/11/13 17:18:18;;;;;;;;;;;;;;;;;;7366170;19;854;-62
2022/11/13 17:21:05;;;;;;;;;;;;;;;;;;7366161;19;1396;-60
2022/11/13 17:23:52;;;;;;;;;;;;;;;;;;7365684;19;772;-61
2022/11/13 17:26:38;;;;;;;;;;;;;;;;;;7364536;19;1861;-63
2022/11/13 17:29:26;;;;;;;;;;;;;;;;;;7364975;19;772;-60
2022/11/13 17:32:13;;;;;;;;;;;;;;;;;;7363373;19;1381;-61
2022/11/13 17:35:00;;;;;;;;;;;;;;;;;;7369366;19;1742;-61
2022/11/13 17:37:47;;;;;;;;;;;;;;;;;;7370802;19;706;-63
2022/11/13 17:40:34;;;;;;;;;;;;;;;;;;7371289;19;691;-62
2022/11/13 17:43:20;;;;;;;;;;;;;;;;;;7372492;19;719;-62
2022/11/13 17:46:07;;;;;;;;;;;;;;;;;;7367276;19;1858;-62
2022/11/13 17:48:54;;;;;;;;;;;;;;;;;;7365914;19;830;-61
2022/11/13 17:51:41;;;;;;;;;;;;;;;;;;7364823;19;1377;-62
2022/11/13 17:54:28;;;;;;;;;;;;;;;;;;7370511;19;840;-63
2022/11/13 17:57:14;;;;;;;;;;;;;;;;;;7372015;19;769;-61
2022/11/13 18:00:01;;;;;;;;;;;;;;;;;;7371036;19;779;-62
2022/11/13 18:02:48;;;;;;;;;;;;;;;;;;7371052;19;2043;-61
2022/11/13 18:05:35;;;;;;;;;;;;;;;;;;7370891;19;1845;-60
2022/11/13 18:08:22;;;;;;;;;;;;;;;;;;7370996;19;791;-60
2022/11/13 18:11:10;;;;;;;;;;;;;;;;;;7370224;19;1275;-60
2022/11/13 18:13:57;;;;;;;;;;;;;;;;;;7371272;19;722;-62
2022/11/13 18:16:44;;;;;;;;;;;;;;;;;;7371148;19;712;-61
2022/11/13 18:19:30;;;;;;;;;;;;;;;;;;7370019;19;860;-61
2022/11/13 18:22:17;;;;;;;;;;;;;;;;;;7370671;19;1366;-61
2022/11/13 18:25:04;;;;;;;;;;;;;;;;;;7371331;19;799;-61
2022/11/13 18:27:51;;;;;;;;;;;;;;;;;;7367821;19;1854;-61
2022/11/13 18:30:38;;;;;;;;;;;;;;;;;;7375592;19;1919;-62
2022/11/13 18:33:24;;;;;;;;;;;;;;;;;;7371208;19;760;-62
2022/11/13 18:36:11;;;;;;;;;;;;;;;;;;7371174;19;771;-61
2022/11/13 18:39:00;;;;;;;;;;;;;;;;;;7370026;19;829;-60
2022/11/13 18:41:47;;;;;;;;;;;;;;;;;;7369504;19;1327;-61
2022/11/13 18:44:35;;;;;;;;;;;;;;;;;;7370006;19;772;-61
2022/11/13 18:47:22;;;;;;;;;;;;;;;;;;7368481;19;1855;-61
2022/11/13 18:50:08;;;;;;;;;;;;;;;;;;7370100;19;763;-62
2022/11/13 18:52:55;;;;;;;;;;;;;;;;;;7367496;19;1354;-61
2022/11/13 18:55:42;;;;;;;;;;;;;;;;;;7370004;19;717;-61
2022/11/13 18:58:28;;;;;;;;;;;;;;;;;;7372824;19;1688;-61
2022/11/13 19:01:15;;;;;;;;;;;;;;;;;;7368950;19;1310;-61
2022/11/13 19:04:03;;;;;;;;;;;;;;;;;;7370052;19;707;-57
2022/11/13 19:06:50;;;;;;;;;;;;;;;;;;7368311;19;1846;-60
2022/11/13 19:09:39;;;;;;;;;;;;;;;;;;7368766;19;801;-62
2022/11/13 19:12:25;;;;;;;;;;;;;;;;;;7367021;19;1346;-62
2022/11/13 19:15:12;;;;;;;;;;;;;;;;;;7370065;19;738;-59
2022/11/13 19:17:59;;;;;;;;;;;;;;;;;;7371542;19;2025;-62
2022/11/13 19:20:46;;;;;;;;;;;;;;;;;;7373896;19;2006;-58
2022/11/13 19:23:32;;;;;;;;;;;;;;;;;;7370188;19;771;-62
2022/11/13 19:26:19;;;;;;;;;;;;;;;;;;7372118;19;2190;-60
2022/11/13 19:29:06;;;;;;;;;;;;;;;;;;7368881;19;727;-61
2022/11/13 19:31:54;;;;;;;;;;;;;;;;;;7367549;19;1342;-62
2022/11/13 19:34:41;;;;;;;;;;;;;;;;;;7368823;19;819;-62